sensor_id;sensor_type;location;lat;lon;timestamp;pressure;altitude;pressure_sealevel;temperature;humidity
64521;BME280;50896;46.714;17.322;2023-07-20T00:01:29;99850.97;;;23.67;90.14
64521;BME280;50896;46.714;17.322;2023-07-20T00:04:16;99854.50;;;23.73;89.94
64521;BME280;50896;46.714;17.322;2023-07-20T00:06:58;99852.78;;;23.57;90.36
64521;BME280;50896;46.714;17.322;2023-07-20T00:09:31;99864.56;;;23.30;91.02
64521;BME280;50896;46.714;17.322;2023-07-20T00:12:05;99860.28;;;23.07;93.43
64521;BME280;50896;46.714;17.322;2023-07-20T00:14:35;99849.69;;;23.05;95.88
64521;BME280;50896;46.714;17.322;2023-07-20T00:17:03;99832.50;;;23.21;93.24
64521;BME280;50896;46.714;17.322;2023-07-20T00:19:33;99830.75;;;23.10;95.20
64521;BME280;50896;46.714;17.322;2023-07-20T00:22:11;99838.41;;;23.13;93.71
64521;BME280;50896;46.714;17.322;2023-07-20T00:24:48;99837.91;;;23.16;94.19
64521;BME280;50896;46.714;17.322;2023-07-20T00:27:23;99826.28;;;23.21;95.33
64521;BME280;50896;46.714;17.322;2023-07-20T00:29:51;99831.47;;;23.28;93.93
64521;BME280;50896;46.714;17.322;2023-07-20T00:32:23;99831.44;;;23.23;94.89
64521;BME280;50896;46.714;17.322;2023-07-20T00:34:53;99824.78;;;23.08;93.44
64521;BME280;50896;46.714;17.322;2023-07-20T00:37:24;99820.59;;;22.95;96.76
64521;BME280;50896;46.714;17.322;2023-07-20T00:39:57;99824.06;;;22.85;98.47
64521;BME280;50896;46.714;17.322;2023-07-20T00:42:26;99830.16;;;23.03;98.22
64521;BME280;50896;46.714;17.322;2023-07-20T00:44:55;99812.19;;;23.24;95.37
64521;BME280;50896;46.714;17.322;2023-07-20T00:47:34;99824.47;;;23.04;95.51
64521;BME280;50896;46.714;17.322;2023-07-20T00:50:02;99817.03;;;22.90;99.65
64521;BME280;50896;46.714;17.322;2023-07-20T00:52:34;99838.06;;;22.77;97.90
64521;BME280;50896;46.714;17.322;2023-07-20T00:55:14;99825.81;;;22.69;100.00
64521;BME280;50896;46.714;17.322;2023-07-20T00:58:07;99840.28;;;22.53;100.00
64521;BME280;50896;46.714;17.322;2023-07-20T01:00:38;99835.91;;;22.47;100.00
64521;BME280;50896;46.714;17.322;2023-07-20T01:03:07;99839.56;;;22.63;100.00
64521;BME280;50896;46.714;17.322;2023-07-20T01:08:50;99862.44;;;22.77;100.00
64521;BME280;50896;46.714;17.322;2023-07-20T01:14:17;99846.91;;;22.95;100.00
64521;BME280;50896;46.714;17.322;2023-07-20T01:16:49;99856.53;;;22.80;100.00
64521;BME280;50896;46.714;17.322;2023-07-20T01:19:27;99847.19;;;22.66;100.00
64521;BME280;50896;46.714;17.322;2023-07-20T01:33:47;99854.44;;;22.60;100.00
64521;BME280;50896;46.714;17.322;2023-07-20T01:36:21;99855.56;;;22.64;100.00
64521;BME280;50896;46.714;17.322;2023-07-20T01:38:57;99867.13;;;22.55;100.00
64521;BME280;50896;46.714;17.322;2023-07-20T01:41:33;99868.66;;;22.45;100.00
64521;BME280;50896;46.714;17.322;2023-07-20T01:44:08;99883.00;;;22.46;100.00
64521;BME280;50896;46.714;17.322;2023-07-20T01:46:38;99881.34;;;22.40;100.00
64521;BME280;50896;46.714;17.322;2023-07-20T01:49:16;99876.22;;;22.43;100.00
64521;BME280;50896;46.714;17.322;2023-07-20T01:51:43;99873.66;;;22.59;100.00
64521;BME280;50896;46.714;17.322;2023-07-20T01:54:19;99871.34;;;22.73;100.00
64521;BME280;50896;46.714;17.322;2023-07-20T01:57:00;99865.66;;;22.69;100.00
64521;BME280;50896;46.714;17.322;2023-07-20T01:59:30;99864.28;;;22.66;100.00
64521;BME280;50896;46.714;17.322;2023-07-20T02:02:06;99863.94;;;22.63;100.00
64521;BME280;50896;46.714;17.322;2023-07-20T02:04:37;99869.38;;;22.63;100.00
64521;BME280;50896;46.714;17.322;2023-07-20T02:07:05;99872.34;;;22.61;100.00
64521;BME280;50896;46.714;17.322;2023-07-20T02:09:37;99868.59;;;22.67;100.00
64521;BME280;50896;46.714;17.322;2023-07-20T02:12:17;99866.13;;;22.61;100.00
64521;BME280;50896;46.714;17.322;2023-07-20T02:14:46;99874.50;;;22.59;100.00
64521;BME280;50896;46.714;17.322;2023-07-20T02:17:21;99876.81;;;22.50;100.00
64521;BME280;50896;46.714;17.322;2023-07-20T02:19:54;99874.69;;;22.52;100.00
64521;BME280;50896;46.714;17.322;2023-07-20T02:22:22;99884.84;;;22.67;100.00
64521;BME280;50896;46.714;17.322;2023-07-20T02:24:56;99881.41;;;22.77;100.00
64521;BME280;50896;46.714;17.322;2023-07-20T02:27:29;99882.09;;;22.90;100.00
64521;BME280;50896;46.714;17.322;2023-07-20T02:30:03;99879.50;;;23.05;100.00
64521;BME280;50896;46.714;17.322;2023-07-20T02:32:36;99871.94;;;23.07;100.00
64521;BME280;50896;46.714;17.322;2023-07-20T02:35:07;99878.16;;;23.02;100.00
64521;BME280;50896;46.714;17.322;2023-07-20T02:37:36;99883.47;;;22.92;100.00
64521;BME280;50896;46.714;17.322;2023-07-20T02:40:10;99889.19;;;22.96;100.00
64521;BME280;50896;46.714;17.322;2023-07-20T02:42:38;99897.28;;;22.91;100.00
64521;BME280;50896;46.714;17.322;2023-07-20T02:45:12;99891.44;;;22.77;100.00
64521;BME280;50896;46.714;17.322;2023-07-20T02:47:40;99887.00;;;22.93;100.00
64521;BME280;50896;46.714;17.322;2023-07-20T02:50:12;99887.19;;;23.13;100.00
64521;BME280;50896;46.714;17.322;2023-07-20T02:52:45;99888.22;;;23.07;100.00
64521;BME280;50896;46.714;17.322;2023-07-20T02:55:12;99874.09;;;23.05;100.00
64521;BME280;50896;46.714;17.322;2023-07-20T02:57:45;99883.16;;;23.16;100.00
64521;BME280;50896;46.714;17.322;2023-07-20T03:00:16;99891.06;;;23.23;100.00
64521;BME280;50896;46.714;17.322;2023-07-20T03:02:48;99897.41;;;23.33;100.00
64521;BME280;50896;46.714;17.322;2023-07-20T03:05:17;99905.16;;;23.19;100.00
64521;BME280;50896;46.714;17.322;2023-07-20T03:07:46;99906.47;;;22.90;100.00
64521;BME280;50896;46.714;17.322;2023-07-20T03:10:15;99900.97;;;22.79;100.00
64521;BME280;50896;46.714;17.322;2023-07-20T03:12:46;99907.16;;;22.75;100.00
64521;BME280;50896;46.714;17.322;2023-07-20T03:15:16;99910.28;;;22.89;100.00
64521;BME280;50896;46.714;17.322;2023-07-20T03:17:45;99909.56;;;23.03;100.00
64521;BME280;50896;46.714;17.322;2023-07-20T03:20:13;99899.34;;;23.11;100.00
64521;BME280;50896;46.714;17.322;2023-07-20T03:22:45;99907.66;;;23.26;100.00
64521;BME280;50896;46.714;17.322;2023-07-20T03:25:15;99907.16;;;23.34;100.00
64521;BME280;50896;46.714;17.322;2023-07-20T03:27:48;99914.44;;;23.29;100.00
64521;BME280;50896;46.714;17.322;2023-07-20T03:30:55;99928.00;;;23.29;100.00
64521;BME280;50896;46.714;17.322;2023-07-20T03:33:29;99917.28;;;23.12;100.00
64521;BME280;50896;46.714;17.322;2023-07-20T03:36:02;99928.97;;;23.12;100.00
64521;BME280;50896;46.714;17.322;2023-07-20T03:38:32;99924.22;;;23.02;100.00
64521;BME280;50896;46.714;17.322;2023-07-20T03:41:04;99942.78;;;22.89;100.00
64521;BME280;50896;46.714;17.322;2023-07-20T03:43:40;99938.84;;;22.74;100.00
64521;BME280;50896;46.714;17.322;2023-07-20T03:46:10;99937.09;;;22.63;100.00
64521;BME280;50896;46.714;17.322;2023-07-20T03:48:40;99942.75;;;22.61;100.00
64521;BME280;50896;46.714;17.322;2023-07-20T03:51:09;99935.44;;;22.62;100.00
64521;BME280;50896;46.714;17.322;2023-07-20T03:53:38;99932.25;;;22.65;100.00
64521;BME280;50896;46.714;17.322;2023-07-20T03:56:11;99926.41;;;22.78;100.00
64521;BME280;50896;46.714;17.322;2023-07-20T03:58:40;99924.88;;;22.87;100.00
64521;BME280;50896;46.714;17.322;2023-07-20T04:01:13;99925.34;;;22.79;100.00
64521;BME280;50896;46.714;17.322;2023-07-20T04:03:44;99926.56;;;22.66;100.00
64521;BME280;50896;46.714;17.322;2023-07-20T04:06:19;99930.28;;;22.60;100.00
64521;BME280;50896;46.714;17.322;2023-07-20T04:08:51;99920.03;;;22.62;100.00
64521;BME280;50896;46.714;17.322;2023-07-20T04:11:19;99917.00;;;22.59;100.00
64521;BME280;50896;46.714;17.322;2023-07-20T04:13:48;99932.44;;;22.58;100.00
64521;BME280;50896;46.714;17.322;2023-07-20T04:16:37;99921.25;;;22.49;100.00
64521;BME280;50896;46.714;17.322;2023-07-20T04:19:14;99920.72;;;22.52;100.00
64521;BME280;50896;46.714;17.322;2023-07-20T04:21:56;99928.09;;;22.57;100.00
64521;BME280;50896;46.714;17.322;2023-07-20T04:24:47;99934.13;;;22.42;100.00
64521;BME280;50896;46.714;17.322;2023-07-20T04:27:20;99930.28;;;22.38;100.00
64521;BME280;50896;46.714;17.322;2023-07-20T04:29:51;99933.66;;;22.28;100.00
64521;BME280;50896;46.714;17.322;2023-07-20T04:32:20;99937.94;;;22.41;100.00
64521;BME280;50896;46.714;17.322;2023-07-20T04:34:48;99942.00;;;22.44;100.00
64521;BME280;50896;46.714;17.322;2023-07-20T04:37:19;99952.13;;;22.53;100.00
64521;BME280;50896;46.714;17.322;2023-07-20T04:39:49;99950.63;;;22.63;100.00
64521;BME280;50896;46.714;17.322;2023-07-20T04:42:24;99943.78;;;22.55;100.00
64521;BME280;50896;46.714;17.322;2023-07-20T04:44:51;99945.13;;;22.80;100.00
64521;BME280;50896;46.714;17.322;2023-07-20T04:47:20;99952.47;;;23.07;100.00
64521;BME280;50896;46.714;17.322;2023-07-20T04:49:51;99953.72;;;22.99;100.00
64521;BME280;50896;46.714;17.322;2023-07-20T04:52:19;99952.34;;;22.96;100.00
64521;BME280;50896;46.714;17.322;2023-07-20T04:55:13;99958.13;;;23.05;100.00
64521;BME280;50896;46.714;17.322;2023-07-20T04:57:44;99958.03;;;22.95;100.00
64521;BME280;50896;46.714;17.322;2023-07-20T05:00:16;99964.50;;;22.94;100.00
64521;BME280;50896;46.714;17.322;2023-07-20T05:02:49;99961.44;;;22.85;100.00
64521;BME280;50896;46.714;17.322;2023-07-20T05:05:20;99965.88;;;22.69;100.00
64521;BME280;50896;46.714;17.322;2023-07-20T05:07:56;99972.91;;;22.70;100.00
64521;BME280;50896;46.714;17.322;2023-07-20T05:10:28;99974.63;;;22.76;100.00
64521;BME280;50896;46.714;17.322;2023-07-20T05:12:59;99973.66;;;22.87;100.00
64521;BME280;50896;46.714;17.322;2023-07-20T05:15:34;99979.34;;;22.86;100.00
64521;BME280;50896;46.714;17.322;2023-07-20T05:18:10;99987.63;;;23.01;100.00
64521;BME280;50896;46.714;17.322;2023-07-20T05:20:41;99986.31;;;23.31;100.00
64521;BME280;50896;46.714;17.322;2023-07-20T05:23:10;99987.78;;;23.44;100.00
64521;BME280;50896;46.714;17.322;2023-07-20T05:25:57;99988.53;;;23.72;100.00
64521;BME280;50896;46.714;17.322;2023-07-20T05:28:28;99987.13;;;23.97;100.00
64521;BME280;50896;46.714;17.322;2023-07-20T05:31:05;99983.72;;;24.17;100.00
64521;BME280;50896;46.714;17.322;2023-07-20T05:33:36;99980.44;;;24.15;100.00
64521;BME280;50896;46.714;17.322;2023-07-20T05:36:08;99982.63;;;24.13;100.00
64521;BME280;50896;46.714;17.322;2023-07-20T05:39:07;99978.75;;;24.03;100.00
64521;BME280;50896;46.714;17.322;2023-07-20T05:41:36;99982.84;;;24.06;100.00
64521;BME280;50896;46.714;17.322;2023-07-20T05:44:11;99968.75;;;24.09;100.00
64521;BME280;50896;46.714;17.322;2023-07-20T05:46:48;99983.88;;;24.00;100.00
64521;BME280;50896;46.714;17.322;2023-07-20T05:49:24;99991.22;;;23.99;100.00
64521;BME280;50896;46.714;17.322;2023-07-20T05:51:53;99987.69;;;23.99;100.00
64521;BME280;50896;46.714;17.322;2023-07-20T05:54:25;99985.41;;;24.33;100.00
64521;BME280;50896;46.714;17.322;2023-07-20T05:56:58;99979.28;;;24.58;100.00
64521;BME280;50896;46.714;17.322;2023-07-20T05:59:32;99985.91;;;24.83;100.00
64521;BME280;50896;46.714;17.322;2023-07-20T06:02:00;99984.06;;;24.94;100.00
64521;BME280;50896;46.714;17.322;2023-07-20T06:04:33;99989.22;;;25.01;100.00
64521;BME280;50896;46.714;17.322;2023-07-20T06:07:13;99987.59;;;24.89;100.00
64521;BME280;50896;46.714;17.322;2023-07-20T06:09:45;99994.06;;;24.73;100.00
64521;BME280;50896;46.714;17.322;2023-07-20T06:12:15;100003.81;;;24.74;100.00
64521;BME280;50896;46.714;17.322;2023-07-20T06:14:46;100002.28;;;25.04;99.53
64521;BME280;50896;46.714;17.322;2023-07-20T06:17:13;100003.66;;;25.12;99.86
64521;BME280;50896;46.714;17.322;2023-07-20T06:19:41;100001.78;;;25.28;97.59
64521;BME280;50896;46.714;17.322;2023-07-20T06:22:10;100002.34;;;25.35;95.28
64521;BME280;50896;46.714;17.322;2023-07-20T06:24:41;100008.91;;;25.44;94.93
64521;BME280;50896;46.714;17.322;2023-07-20T06:27:09;100002.63;;;25.64;92.39
64521;BME280;50896;46.714;17.322;2023-07-20T06:29:46;100008.34;;;25.78;90.17
64521;BME280;50896;46.714;17.322;2023-07-20T06:32:19;100011.88;;;25.89;90.12
64521;BME280;50896;46.714;17.322;2023-07-20T06:34:59;100001.25;;;25.92;90.55
64521;BME280;50896;46.714;17.322;2023-07-20T06:37:40;100007.53;;;25.93;88.65
64521;BME280;50896;46.714;17.322;2023-07-20T06:40:21;100009.97;;;26.05;88.12
64521;BME280;50896;46.714;17.322;2023-07-20T06:42:58;100007.47;;;26.19;86.13
64521;BME280;50896;46.714;17.322;2023-07-20T06:45:33;100005.00;;;26.27;84.98
64521;BME280;50896;46.714;17.322;2023-07-20T06:48:15;100008.56;;;26.18;86.26
64521;BME280;50896;46.714;17.322;2023-07-20T06:50:55;100009.41;;;26.23;86.30
64521;BME280;50896;46.714;17.322;2023-07-20T06:53:30;100008.28;;;26.30;88.17
64521;BME280;50896;46.714;17.322;2023-07-20T06:56:01;100006.63;;;26.34;87.00
64521;BME280;50896;46.714;17.322;2023-07-20T06:58:34;99997.38;;;26.30;86.36
64521;BME280;50896;46.714;17.322;2023-07-20T07:01:08;100002.81;;;26.35;82.13
64521;BME280;50896;46.714;17.322;2023-07-20T07:03:42;100005.00;;;26.33;82.80
64521;BME280;50896;46.714;17.322;2023-07-20T07:06:14;100006.63;;;26.34;75.72
64521;BME280;50896;46.714;17.322;2023-07-20T07:08:43;100001.47;;;26.32;75.79
64521;BME280;50896;46.714;17.322;2023-07-20T07:11:15;100005.81;;;26.33;76.51
64521;BME280;50896;46.714;17.322;2023-07-20T07:13:44;100012.34;;;26.37;75.94
64521;BME280;50896;46.714;17.322;2023-07-20T07:16:27;100011.50;;;26.42;74.10
64521;BME280;50896;46.714;17.322;2023-07-20T07:19:38;100015.03;;;26.48;73.45
64521;BME280;50896;46.714;17.322;2023-07-20T07:22:10;100005.50;;;26.45;71.30
64521;BME280;50896;46.714;17.322;2023-07-20T07:24:40;100010.38;;;26.48;71.81
64521;BME280;50896;46.714;17.322;2023-07-20T07:27:13;100006.84;;;26.48;69.40
64521;BME280;50896;46.714;17.322;2023-07-20T07:29:45;100011.44;;;26.57;70.63
64521;BME280;50896;46.714;17.322;2023-07-20T07:32:25;100002.72;;;26.55;67.86
64521;BME280;50896;46.714;17.322;2023-07-20T07:34:58;100003.50;;;26.61;67.27
64521;BME280;50896;46.714;17.322;2023-07-20T07:37:27;100010.03;;;26.65;65.00
64521;BME280;50896;46.714;17.322;2023-07-20T07:40:11;100012.22;;;26.68;65.21
64521;BME280;50896;46.714;17.322;2023-07-20T07:42:39;100009.50;;;26.73;65.37
64521;BME280;50896;46.714;17.322;2023-07-20T07:45:14;100014.97;;;26.68;64.70
64521;BME280;50896;46.714;17.322;2023-07-20T07:47:46;100014.66;;;26.75;65.92
64521;BME280;50896;46.714;17.322;2023-07-20T07:50:17;100016.31;;;26.76;66.55
64521;BME280;50896;46.714;17.322;2023-07-20T07:52:51;100015.19;;;26.82;66.55
64521;BME280;50896;46.714;17.322;2023-07-20T07:55:25;100027.97;;;26.92;66.08
64521;BME280;50896;46.714;17.322;2023-07-20T07:58:01;100023.56;;;26.96;68.40
64521;BME280;50896;46.714;17.322;2023-07-20T08:00:31;100024.06;;;27.03;68.52
64521;BME280;50896;46.714;17.322;2023-07-20T08:03:02;100030.59;;;27.07;66.40
64521;BME280;50896;46.714;17.322;2023-07-20T08:05:34;100034.13;;;27.13;65.01
64521;BME280;50896;46.714;17.322;2023-07-20T08:08:03;100034.63;;;27.15;65.71
64521;BME280;50896;46.714;17.322;2023-07-20T08:10:35;100046.31;;;27.21;63.53
64521;BME280;50896;46.714;17.322;2023-07-20T08:13:03;100037.63;;;27.19;63.76
64521;BME280;50896;46.714;17.322;2023-07-20T08:15:38;100032.66;;;27.26;62.36
64521;BME280;50896;46.714;17.322;2023-07-20T08:18:06;100036.25;;;27.21;61.99
64521;BME280;50896;46.714;17.322;2023-07-20T08:20:39;100035.19;;;27.17;59.90
64521;BME280;50896;46.714;17.322;2023-07-20T08:23:16;100034.59;;;27.25;60.15
64521;BME280;50896;46.714;17.322;2023-07-20T08:25:44;100026.06;;;27.32;61.32
64521;BME280;50896;46.714;17.322;2023-07-20T08:28:18;100028.47;;;27.44;62.07
64521;BME280;50896;46.714;17.322;2023-07-20T08:30:48;100032.28;;;27.43;63.29
64521;BME280;50896;46.714;17.322;2023-07-20T08:33:25;100027.91;;;27.47;58.20
64521;BME280;50896;46.714;17.322;2023-07-20T08:36:01;100039.78;;;27.61;60.21
64521;BME280;50896;46.714;17.322;2023-07-20T08:38:33;100038.97;;;27.61;61.13
64521;BME280;50896;46.714;17.322;2023-07-20T08:41:02;100039.47;;;27.68;57.93
64521;BME280;50896;46.714;17.322;2023-07-20T08:43:39;100042.19;;;27.68;58.52
64521;BME280;50896;46.714;17.322;2023-07-20T08:46:13;100037.00;;;27.72;56.84
64521;BME280;50896;46.714;17.322;2023-07-20T08:48:43;100035.53;;;27.79;60.78
64521;BME280;50896;46.714;17.322;2023-07-20T08:51:21;100042.81;;;27.89;60.25
64521;BME280;50896;46.714;17.322;2023-07-20T08:53:52;100031.91;;;27.89;55.42
64521;BME280;50896;46.714;17.322;2023-07-20T08:56:23;100034.31;;;27.96;56.81
64521;BME280;50896;46.714;17.322;2023-07-20T08:58:58;100034.00;;;28.03;59.09
64521;BME280;50896;46.714;17.322;2023-07-20T09:01:51;100030.69;;;28.06;59.09
64521;BME280;50896;46.714;17.322;2023-07-20T09:04:28;100030.69;;;28.06;58.05
64521;BME280;50896;46.714;17.322;2023-07-20T09:06:58;100031.03;;;27.99;54.89
64521;BME280;50896;46.714;17.322;2023-07-20T09:09:51;100032.31;;;28.07;57.61
64521;BME280;50896;46.714;17.322;2023-07-20T09:12:21;100036.44;;;28.04;54.35
64521;BME280;50896;46.714;17.322;2023-07-20T09:14:51;100026.81;;;28.12;56.88
64521;BME280;50896;46.714;17.322;2023-07-20T09:17:27;100030.19;;;28.04;49.70
64521;BME280;50896;46.714;17.322;2023-07-20T09:20:01;100038.38;;;28.04;52.60
64521;BME280;50896;46.714;17.322;2023-07-20T09:22:37;100027.94;;;28.06;55.81
64521;BME280;50896;46.714;17.322;2023-07-20T09:25:17;100024.00;;;28.17;55.44
64521;BME280;50896;46.714;17.322;2023-07-20T09:27:50;100022.41;;;28.16;53.20
64521;BME280;50896;46.714;17.322;2023-07-20T09:30:25;100024.25;;;28.21;57.04
64521;BME280;50896;46.714;17.322;2023-07-20T09:33:21;100020.19;;;28.18;54.40
64521;BME280;50896;46.714;17.322;2023-07-20T09:35:52;100034.09;;;28.22;55.60
64521;BME280;50896;46.714;17.322;2023-07-20T09:38:32;100032.78;;;28.14;54.58
64521;BME280;50896;46.714;17.322;2023-07-20T09:41:26;100036.63;;;28.13;53.37
64521;BME280;50896;46.714;17.322;2023-07-20T09:43:59;100042.38;;;28.11;54.09
64521;BME280;50896;46.714;17.322;2023-07-20T09:46:52;100031.88;;;28.24;56.28
64521;BME280;50896;46.714;17.322;2023-07-20T09:49:27;100039.56;;;28.22;55.19
64521;BME280;50896;46.714;17.322;2023-07-20T09:52:05;100038.81;;;28.16;54.21
64521;BME280;50896;46.714;17.322;2023-07-20T09:54:40;100036.28;;;28.20;55.87
64521;BME280;50896;46.714;17.322;2023-07-20T09:57:09;100036.00;;;28.21;53.94
64521;BME280;50896;46.714;17.322;2023-07-20T09:59:40;100048.09;;;28.15;55.78
64521;BME280;50896;46.714;17.322;2023-07-20T10:02:32;100033.84;;;28.18;53.46
64521;BME280;50896;46.714;17.322;2023-07-20T10:05:05;100031.66;;;28.20;54.73
64521;BME280;50896;46.714;17.322;2023-07-20T10:07:35;100030.81;;;28.20;54.01
64521;BME280;50896;46.714;17.322;2023-07-20T10:10:09;100038.81;;;28.16;50.53
64521;BME280;50896;46.714;17.322;2023-07-20T10:12:41;100030.81;;;28.20;46.76
64521;BME280;50896;46.714;17.322;2023-07-20T10:18:22;100030.66;;;28.11;52.38
64521;BME280;50896;46.714;17.322;2023-07-20T10:20:55;100028.97;;;28.15;49.75
64521;BME280;50896;46.714;17.322;2023-07-20T10:23:30;100026.13;;;28.25;52.90
64521;BME280;50896;46.714;17.322;2023-07-20T10:26:01;100022.75;;;28.34;53.02
64521;BME280;50896;46.714;17.322;2023-07-20T10:28:31;100017.81;;;28.36;48.81
64521;BME280;50896;46.714;17.322;2023-07-20T10:31:01;100025.38;;;28.44;51.71
64521;BME280;50896;46.714;17.322;2023-07-20T10:33:32;100024.44;;;28.54;50.00
64521;BME280;50896;46.714;17.322;2023-07-20T10:36:27;100017.00;;;28.59;49.58
64521;BME280;50896;46.714;17.322;2023-07-20T10:38:58;100023.66;;;28.48;50.17
64521;BME280;50896;46.714;17.322;2023-07-20T10:41:39;100026.22;;;28.39;50.19
64521;BME280;50896;46.714;17.322;2023-07-20T10:44:10;100023.03;;;28.32;52.60
64521;BME280;50896;46.714;17.322;2023-07-20T10:49:09;100024.16;;;28.55;50.40
64521;BME280;50896;46.714;17.322;2023-07-20T10:51:47;100016.44;;;28.57;47.27
64521;BME280;50896;46.714;17.322;2023-07-20T10:54:46;100017.38;;;28.47;47.45
64521;BME280;50896;46.714;17.322;2023-07-20T10:57:33;100019.41;;;28.37;47.65
64521;BME280;50896;46.714;17.322;2023-07-20T11:00:13;100016.56;;;28.23;47.13
64521;BME280;50896;46.714;17.322;2023-07-20T11:02:49;100023.16;;;28.22;46.62
64521;BME280;50896;46.714;17.322;2023-07-20T11:05:35;100019.25;;;28.28;49.63
64521;BME280;50896;46.714;17.322;2023-07-20T11:08:12;100010.78;;;28.54;48.50
64521;BME280;50896;46.714;17.322;2023-07-20T11:10:43;100016.81;;;28.51;44.83
64521;BME280;50896;46.714;17.322;2023-07-20T11:13:25;100012.75;;;28.72;46.44
64521;BME280;50896;46.714;17.322;2023-07-20T11:18:28;100017.56;;;28.99;49.13
64521;BME280;50896;46.714;17.322;2023-07-20T11:21:01;100016.38;;;29.06;48.15
64521;BME280;50896;46.714;17.322;2023-07-20T11:23:31;100015.50;;;29.10;47.40
64521;BME280;50896;46.714;17.322;2023-07-20T11:26:11;100006.84;;;29.22;41.82
64521;BME280;50896;46.714;17.322;2023-07-20T11:28:43;100011.69;;;29.30;42.19
64521;BME280;50896;46.714;17.322;2023-07-20T11:31:14;100010.78;;;29.35;43.40
64521;BME280;50896;46.714;17.322;2023-07-20T11:33:46;100013.59;;;29.30;44.43
64521;BME280;50896;46.714;17.322;2023-07-20T11:36:14;100003.59;;;29.39;45.52
64521;BME280;50896;46.714;17.322;2023-07-20T11:38:53;100002.19;;;29.42;45.20
64521;BME280;50896;46.714;17.322;2023-07-20T11:41:27;100006.38;;;29.53;43.30
64521;BME280;50896;46.714;17.322;2023-07-20T11:44:03;100000.22;;;29.61;47.25
64521;BME280;50896;46.714;17.322;2023-07-20T11:46:33;100000.53;;;29.60;44.58
64521;BME280;50896;46.714;17.322;2023-07-20T11:49:08;100006.09;;;29.55;45.24
64521;BME280;50896;46.714;17.322;2023-07-20T11:51:36;99997.97;;;29.63;41.26
64521;BME280;50896;46.714;17.322;2023-07-20T11:54:08;100005.94;;;29.79;44.82
64521;BME280;50896;46.714;17.322;2023-07-20T11:56:44;100001.59;;;29.78;40.46
64521;BME280;50896;46.714;17.322;2023-07-20T11:59:15;100000.41;;;29.84;42.89
64521;BME280;50896;46.714;17.322;2023-07-20T12:01:50;99992.59;;;29.91;44.84
64521;BME280;50896;46.714;17.322;2023-07-20T12:04:25;99993.69;;;29.90;44.24
64521;BME280;50896;46.714;17.322;2023-07-20T12:06:55;99982.56;;;29.87;40.32
64521;BME280;50896;46.714;17.322;2023-07-20T12:09:24;99976.97;;;29.92;44.95
64521;BME280;50896;46.714;17.322;2023-07-20T12:12:14;99971.06;;;29.85;42.71
64521;BME280;50896;46.714;17.322;2023-07-20T12:14:46;99966.78;;;29.78;45.79
64521;BME280;50896;46.714;17.322;2023-07-20T12:17:19;99965.94;;;29.64;43.81
64521;BME280;50896;46.714;17.322;2023-07-20T12:19:50;99965.72;;;29.60;45.39
64521;BME280;50896;46.714;17.322;2023-07-20T12:22:25;99963.19;;;29.50;41.91
64521;BME280;50896;46.714;17.322;2023-07-20T12:24:56;99963.69;;;29.52;43.34
64521;BME280;50896;46.714;17.322;2023-07-20T12:27:28;99962.97;;;29.46;46.94
64521;BME280;50896;46.714;17.322;2023-07-20T12:30:01;99963.34;;;29.40;46.58
64521;BME280;50896;46.714;17.322;2023-07-20T12:32:31;99961.81;;;29.34;42.86
64521;BME280;50896;46.714;17.322;2023-07-20T12:35:05;99960.19;;;29.32;40.88
64521;BME280;50896;46.714;17.322;2023-07-20T12:37:36;99960.97;;;29.33;46.61
64521;BME280;50896;46.714;17.322;2023-07-20T12:40:06;99959.75;;;29.25;45.31
64521;BME280;50896;46.714;17.322;2023-07-20T12:42:42;99953.22;;;29.21;42.73
64521;BME280;50896;46.714;17.322;2023-07-20T12:45:12;99956.75;;;29.22;45.87
64521;BME280;50896;46.714;17.322;2023-07-20T12:47:41;99957.06;;;29.20;43.13
64521;BME280;50896;46.714;17.322;2023-07-20T12:50:10;99959.50;;;29.22;44.04
64521;BME280;50896;46.714;17.322;2023-07-20T12:52:39;99957.34;;;29.19;44.09
64521;BME280;50896;46.714;17.322;2023-07-20T12:55:09;99956.41;;;29.09;43.60
64521;BME280;50896;46.714;17.322;2023-07-20T12:57:49;99957.59;;;29.03;43.98
64521;BME280;50896;46.714;17.322;2023-07-20T13:00:20;99966.72;;;28.98;45.60
64521;BME280;50896;46.714;17.322;2023-07-20T13:02:54;99962.03;;;28.99;41.23
64521;BME280;50896;46.714;17.322;2023-07-20T13:05:31;99959.66;;;28.92;44.98
64521;BME280;50896;46.714;17.322;2023-07-20T13:08:06;99957.53;;;28.89;45.88
64521;BME280;50896;46.714;17.322;2023-07-20T13:10:38;99959.53;;;28.84;44.23
64521;BME280;50896;46.714;17.322;2023-07-20T13:13:13;99963.97;;;28.79;44.85
64521;BME280;50896;46.714;17.322;2023-07-20T13:15:53;99966.09;;;28.83;46.72
64521;BME280;50896;46.714;17.322;2023-07-20T13:18:22;99969.88;;;28.87;45.71
64521;BME280;50896;46.714;17.322;2023-07-20T13:20:53;99966.25;;;28.91;44.46
64521;BME280;50896;46.714;17.322;2023-07-20T13:23:28;99964.03;;;28.93;43.61
64521;BME280;50896;46.714;17.322;2023-07-20T13:25:59;99968.97;;;28.91;40.61
64521;BME280;50896;46.714;17.322;2023-07-20T13:28:30;99960.03;;;28.86;43.96
64521;BME280;50896;46.714;17.322;2023-07-20T13:30:58;99963.59;;;28.86;43.36
64521;BME280;50896;46.714;17.322;2023-07-20T13:33:27;99957.53;;;28.89;41.53
64521;BME280;50896;46.714;17.322;2023-07-20T13:36:05;99958.34;;;28.90;42.24
64521;BME280;50896;46.714;17.322;2023-07-20T13:38:38;99957.47;;;28.94;41.30
64521;BME280;50896;46.714;17.322;2023-07-20T13:41:15;99950.34;;;28.93;42.63
64521;BME280;50896;46.714;17.322;2023-07-20T13:43:47;99952.19;;;28.98;44.03